TFM - Tactical Decision Aid
ID: Runway Winds: CIG/VIS Threshold:

KDTW - Detroit Metro/Wayne, MI, US

Updated at: 1751 UTC 23 Apr 2019
Latest TAF at: 1728 UTC 23 Apr 2019

TAF Board

Time1653Z 23/18Z 23/19Z 23/20Z 23/21Z 23/22Z 23/23Z 24/00Z 24/01Z 24/02Z 24/03Z 24/04Z 24/05Z 24/06Z>>
Type OBS PRVL PRVL PRVL PRVL PRVL PRVL PRVL PRVL PRVL PRVL PRVL PRVL PRVL
VIS 10 >6 >6 >6 >6 >6 >6 >6 >6 >6 >6 >6 >6 >6
CIG 30 35 35 35 35 -- -- -- -- -- -- -- -- --
Cover OVC BKN BKN BKN BKN SCT SCT SCT SCT SCT SCT SCT SCT SCT
FltCat MVFR VFR VFR VFR VFR VFR VFR VFR VFR VFR VFR VFR VFR VFR
WX -- -- -- -- -- -- -- -- -- -- -- -- -- --
WDir 270 280 280 280 280 300 300 300 310 310 310 310 310 310
WSpd 19 17 17 17 17 13 13 13 7 7 7 7 7 7
WGst -- 29 29 29 29 24 24 24 -- -- -- -- -- --

TDA Impact Legend

  None Marginal Slight Moderate High
Visibility (sm) >5 3≤X≤5 1≤X<3 0.5≤X<1 <0.5
Ceiling (100 ft) >30 10≤X≤30 4≤X<10 2≤X<4 <2
Wind Speed (kt) <15 15≤X<25 25≤X<30 ≥30
Wind Gust (kt) <15 15≤X<25 25≤X<35 ≥35
Weather No Wx Reported VCTS -TS,-FZRA TS,FZRA +TS,+FZRA
TAF
KDTW 231728Z 2318/2424 28017G29KT P6SM SCT025 BKN035
  FM232200 30013G24KT P6SM SCT040
  FM240100 31007KT P6SM SCT150
  FM241200 32004KT P6SM SKC


METAR
KDTW 231653Z 27019KT 10SM BKN030 OVC050 19/11 A2980 RMK AO2 PK WND 25026/1613 SLP092 T01890106
KDTW 231553Z 26020G29KT 10SM SCT025 BKN035 OVC050 19/12 A2980 RMK AO2 PK WND 26031/1516 SLP090 T01890117
KDTW 231453Z 25017G28KT 10SM BKN040 BKN200 21/11 A2978 RMK AO2 PK WND 26028/1444 SLP082 T02110111 56008

Radar Display
Forecast Discussion